createdAt,value
2023-06-06T00:01:18.501Z,100143.94
2023-06-06T00:06:22.553Z,100146.88
2023-06-06T00:11:26.268Z,100154.06
2023-06-06T00:16:29.229Z,100149.97
2023-06-06T00:21:34.171Z,100161.31
2023-06-06T00:26:37.268Z,100164.81
2023-06-06T00:31:40.284Z,100183.19
2023-06-06T00:36:43.227Z,100174.75
2023-06-06T00:41:48.200Z,100156.78
2023-06-06T00:46:51.808Z,100151.84
2023-06-06T00:51:56.320Z,100176.78
2023-06-06T00:57:01.320Z,100224.44
2023-06-06T01:02:11.258Z,100188.31
2023-06-06T01:07:18.760Z,100187.25
2023-06-06T01:13:01.961Z,100179.81
2023-06-06T01:18:05.957Z,100172.81
2023-06-06T01:23:13.090Z,100166.19
2023-06-06T01:28:17.657Z,100181.06
2023-06-06T01:33:39.124Z,100181.47
2023-06-06T01:38:48.639Z,100160.03
2023-06-06T01:43:55.469Z,100169.75
2023-06-06T01:48:59.047Z,100149.53
2023-06-06T01:54:02.081Z,100154.66
2023-06-06T01:59:06.777Z,100150.78
2023-06-06T02:04:09.999Z,100155.94
2023-06-06T02:09:12.966Z,100167.25
2023-06-06T02:14:17.002Z,100153.84
2023-06-06T02:19:21.307Z,100158.41
2023-06-06T02:24:27.677Z,100162.75
2023-06-06T02:29:30.778Z,100158.41
2023-06-06T02:34:33.721Z,100152.44
2023-06-06T02:39:37.226Z,100154.28
2023-06-06T02:44:39.964Z,100152.63
2023-06-06T02:49:43.081Z,100151.81
2023-06-06T02:54:46.614Z,100152.63
2023-06-06T02:59:49.626Z,100150.13
2023-06-06T03:04:52.587Z,100154.88
2023-06-06T03:09:55.664Z,100177.75
2023-06-06T03:14:58.672Z,100193.41
2023-06-06T03:20:01.689Z,100161.25
2023-06-06T03:25:05.765Z,100163.50
2023-06-06T03:30:09.918Z,100187.00
2023-06-06T03:35:15.924Z,100188.44
2023-06-06T03:40:19.080Z,100189.25
2023-06-06T03:45:22.851Z,100185.47
2023-06-06T03:50:26.017Z,100206.72
2023-06-06T03:55:29.797Z,100210.66
2023-06-06T04:00:33.368Z,100194.59
2023-06-06T04:05:36.537Z,100197.09
2023-06-06T04:10:39.377Z,100197.72
2023-06-06T04:15:42.303Z,100197.09
2023-06-06T04:20:45.716Z,100199.97
2023-06-06T04:25:50.058Z,100191.34
2023-06-06T04:30:54.361Z,100188.28
2023-06-06T04:35:58.886Z,100185.59
2023-06-06T04:41:31.526Z,100179.59
2023-06-06T04:46:25.340Z,100173.63
2023-06-06T04:51:34.640Z,100164.16
2023-06-06T04:56:41.299Z,100165.81
2023-06-06T05:01:47.918Z,100161.50
2023-06-06T05:06:51.526Z,100162.13
2023-06-06T05:11:55.932Z,100161.72
2023-06-06T05:16:59.321Z,100163.78
2023-06-06T05:22:02.594Z,100165.44
2023-06-06T05:27:06.540Z,100166.28
2023-06-06T05:32:10.151Z,100168.94
2023-06-06T05:37:14.287Z,100170.41
2023-06-06T05:42:17.270Z,100177.44
2023-06-06T05:47:20.321Z,100176.16
2023-06-06T05:52:23.296Z,100176.59
2023-06-06T05:57:26.947Z,100171.63
2023-06-06T06:02:30.362Z,100167.50
2023-06-06T06:07:33.589Z,100172.66
2023-06-06T06:12:36.515Z,100175.75
2023-06-06T06:17:39.496Z,100180.28
2023-06-06T06:22:42.656Z,100188.13
2023-06-06T06:27:46.889Z,100185.69
2023-06-06T06:32:49.911Z,100202.59
2023-06-06T06:37:52.928Z,100187.91
2023-06-06T06:42:55.902Z,100207.34
2023-06-06T06:48:01.037Z,100210.03
2023-06-06T06:53:07.130Z,100217.88
2023-06-06T06:58:10.569Z,100214.59
2023-06-06T07:03:13.588Z,100207.78
2023-06-06T07:08:16.732Z,100210.63
2023-06-06T07:13:20.275Z,100205.47
2023-06-06T07:18:23.318Z,100206.28
2023-06-06T07:23:26.879Z,100208.75
2023-06-06T07:28:30.278Z,100218.03
2023-06-06T07:33:33.547Z,100201.50
2023-06-06T07:38:36.720Z,100213.66
2023-06-06T07:43:39.845Z,100206.25
2023-06-06T07:48:43.908Z,100207.84
2023-06-06T07:53:48.155Z,100205.38
2023-06-06T07:58:54.747Z,100201.41
2023-06-06T08:03:57.666Z,100204.28
2023-06-06T08:09:00.689Z,100196.25
2023-06-06T08:14:03.756Z,100202.25
2023-06-06T08:19:06.712Z,100194.00
2023-06-06T08:24:09.739Z,100196.25
2023-06-06T08:29:12.748Z,100193.16
2023-06-06T08:34:16.309Z,100185.88
2023-06-06T08:39:19.971Z,100188.13
2023-06-06T08:44:25.095Z,100187.84
2023-06-06T08:49:29.795Z,100186.75
2023-06-06T08:54:34.403Z,100185.66
2023-06-06T08:59:42.448Z,100181.19
2023-06-06T09:04:46.122Z,100174.81
2023-06-06T09:09:50.438Z,100177.56
2023-06-06T09:14:54.094Z,100175.44
2023-06-06T09:20:00.105Z,100176.06
2023-06-06T09:25:06.172Z,100172.66
2023-06-06T09:30:23.698Z,100165.75
2023-06-06T09:35:35.985Z,100175.84
2023-06-06T09:40:53.041Z,100171.69
2023-06-06T09:45:58.893Z,100176.53
2023-06-06T09:51:03.589Z,100168.84
2023-06-06T09:56:07.976Z,100164.50
2023-06-06T10:01:11.972Z,100157.16
2023-06-06T10:06:16.109Z,100156.84
2023-06-06T10:11:21.867Z,100143.41
2023-06-06T10:16:30.040Z,100145.25
2023-06-06T10:21:34.978Z,100139.47
2023-06-06T10:27:06.943Z,100138.06
2023-06-06T10:32:17.136Z,100126.47
2023-06-06T10:37:23.676Z,100132.25
2023-06-06T10:42:40.358Z,100137.56
2023-06-06T10:47:48.197Z,100122.78
2023-06-06T10:53:00.761Z,100136.47
2023-06-06T10:58:06.102Z,100131.84
2023-06-06T11:03:17.182Z,100126.31
2023-06-06T11:08:58.571Z,100125.28
2023-06-06T11:14:06.421Z,100132.56
2023-06-06T11:19:18.226Z,100120.22
2023-06-06T11:24:21.477Z,100139.38
2023-06-06T11:29:27.710Z,100149.00
2023-06-06T11:34:33.682Z,100179.03
2023-06-06T11:39:37.611Z,100159.97
2023-06-06T11:44:40.857Z,100163.69
2023-06-06T11:49:46.564Z,100159.72
2023-06-06T11:54:55.605Z,100174.22
2023-06-06T12:00:00.754Z,100178.63
2023-06-06T12:05:05.736Z,100188.16
2023-06-06T12:10:09.101Z,100176.19
2023-06-06T12:15:12.142Z,100169.59
2023-06-06T12:20:25.801Z,100173.09
2023-06-06T12:25:29.744Z,100168.34
2023-06-06T12:30:33.874Z,100168.16
2023-06-06T12:35:37.109Z,100174.72
2023-06-06T12:40:40.579Z,100172.03
2023-06-06T12:45:43.666Z,100175.56
2023-06-06T12:50:46.666Z,100169.16
2023-06-06T12:55:49.627Z,100164.19
2023-06-06T13:00:52.680Z,100165.44
2023-06-06T13:05:56.541Z,100167.06
2023-06-06T13:11:00.836Z,100167.22
2023-06-06T13:16:04.475Z,100166.81
2023-06-06T13:21:07.455Z,100168.84
2023-06-06T13:26:10.624Z,100158.13
2023-06-06T13:31:13.951Z,100163.88
2023-06-06T13:36:17.197Z,100163.84
2023-06-06T13:41:22.789Z,100170.00
2023-06-06T13:46:25.933Z,100165.00
2023-06-06T13:51:28.903Z,100161.69
2023-06-06T13:56:31.802Z,100157.72
2023-06-06T14:01:35.158Z,100150.06
2023-06-06T14:06:38.455Z,100155.63
2023-06-06T14:11:42.691Z,100150.44
2023-06-06T14:16:46.043Z,100148.53
2023-06-06T14:22:09.101Z,100144.56
2023-06-06T14:27:12.319Z,100134.81
2023-06-06T14:32:16.936Z,100131.13
2023-06-06T14:37:19.774Z,100134.66
2023-06-06T14:42:23.226Z,100132.41
2023-06-06T14:47:27.039Z,100124.13
2023-06-06T14:52:30.524Z,100115.47
2023-06-06T14:57:33.590Z,100121.00
2023-06-06T15:02:37.607Z,100105.75
2023-06-06T15:07:41.130Z,100098.88
2023-06-06T15:12:44.098Z,100102.38
2023-06-06T15:17:47.418Z,100091.63
2023-06-06T15:22:50.356Z,100077.31
2023-06-06T15:27:53.412Z,100065.56
2023-06-06T15:32:56.539Z,100070.69
2023-06-06T15:37:59.707Z,100064.75
2023-06-06T15:43:02.527Z,100067.84
2023-06-06T15:48:07.580Z,100048.09
2023-06-06T15:53:10.666Z,100058.03
2023-06-06T15:58:15.359Z,100063.41
2023-06-06T16:03:18.186Z,100066.09
2023-06-06T16:08:21.482Z,100069.22
2023-06-06T16:13:24.767Z,100074.59
2023-06-06T16:18:27.600Z,100066.75
2023-06-06T16:23:30.978Z,100057.09
2023-06-06T16:28:33.883Z,100057.28
2023-06-06T16:33:37.323Z,100059.13
2023-06-06T16:38:40.356Z,100045.47
2023-06-06T16:43:43.356Z,100045.69
2023-06-06T16:48:46.229Z,100054.94
2023-06-06T16:53:48.976Z,100072.94
2023-06-06T16:58:52.067Z,100074.38
2023-06-06T17:03:55.172Z,100077.06
2023-06-06T17:08:58.506Z,100089.63
2023-06-06T17:14:01.528Z,100083.22
2023-06-06T17:19:04.727Z,100096.66
2023-06-06T17:24:08.084Z,100091.28
2023-06-06T17:29:12.977Z,100109.22
2023-06-06T17:34:16.191Z,100107.75
2023-06-06T17:39:19.069Z,100095.19
2023-06-06T17:44:22.592Z,100090.22
2023-06-06T17:49:25.561Z,100091.03
2023-06-06T17:54:29.726Z,100097.88
2023-06-06T17:59:33.776Z,100094.31
2023-06-06T18:04:36.985Z,100088.13
2023-06-06T18:09:39.849Z,100084.84
2023-06-06T18:14:42.890Z,100088.41
2023-06-06T18:19:45.776Z,100092.72
2023-06-06T18:24:48.617Z,100082.44
2023-06-06T18:29:52.660Z,100093.59
2023-06-06T18:34:57.250Z,100098.16
2023-06-06T18:40:00.403Z,100113.50
2023-06-06T18:45:05.618Z,100118.50
2023-06-06T18:50:09.650Z,100132.22
2023-06-06T18:55:12.967Z,100132.47
2023-06-06T19:00:16.399Z,100128.19
2023-06-06T19:05:19.575Z,100136.09
2023-06-06T19:10:23.145Z,100142.34
2023-06-06T19:15:25.937Z,100147.06
2023-06-06T19:20:29.024Z,100162.34
2023-06-06T19:25:32.507Z,100167.50
2023-06-06T19:30:36.011Z,100171.22
2023-06-06T19:35:40.905Z,100185.22
2023-06-06T19:40:46.078Z,100185.22
2023-06-06T19:45:49.106Z,100181.31
2023-06-06T19:50:52.553Z,100188.38
2023-06-06T19:55:56.537Z,100182.38
2023-06-06T20:00:59.680Z,100182.97
2023-06-06T20:06:03.675Z,100169.78
2023-06-06T20:11:06.852Z,100185.44
2023-06-06T20:16:09.720Z,100177.63
2023-06-06T20:21:12.696Z,100175.34
2023-06-06T20:26:16.451Z,100173.47
2023-06-06T20:31:19.584Z,100174.94
2023-06-06T20:36:22.432Z,100167.13
2023-06-06T20:41:25.923Z,100164.41
2023-06-06T20:46:28.898Z,100167.91
2023-06-06T20:51:32.534Z,100167.50
2023-06-06T20:56:35.950Z,100161.13
2023-06-06T21:01:38.933Z,100172.44
2023-06-06T21:06:41.880Z,100172.44
2023-06-06T21:11:44.918Z,100181.53
2023-06-06T21:16:47.771Z,100170.81
2023-06-06T21:21:50.862Z,100178.25
2023-06-06T21:26:54.331Z,100179.47
2023-06-06T21:31:57.291Z,100171.41
2023-06-06T21:37:00.590Z,100180.72
2023-06-06T21:42:04.405Z,100175.78
2023-06-06T21:47:07.375Z,100183.59
2023-06-06T21:52:11.043Z,100180.94
2023-06-06T21:57:13.942Z,100177.44
2023-06-06T22:02:17.060Z,100173.28
2023-06-06T22:07:20.911Z,100162.34
2023-06-06T22:12:23.933Z,100169.16
2023-06-06T22:17:26.913Z,100167.09
2023-06-06T22:22:30.004Z,100158.22
2023-06-06T22:27:34.063Z,100155.53
2023-06-06T22:32:37.255Z,100151.63
2023-06-06T22:37:40.096Z,100161.34
2023-06-06T22:42:43.452Z,100143.56
2023-06-06T22:47:46.497Z,100147.72
2023-06-06T22:52:49.312Z,100140.50
2023-06-06T22:57:52.294Z,100143.56
2023-06-06T23:02:57.904Z,100132.44
2023-06-06T23:08:01.287Z,100143.38
2023-06-06T23:13:04.208Z,100141.31
2023-06-06T23:18:08.578Z,100141.53
2023-06-06T23:23:12.001Z,100126.28
2023-06-06T23:28:14.765Z,100129.16
2023-06-06T23:33:17.765Z,100127.50
2023-06-06T23:38:20.666Z,100124.84
2023-06-06T23:43:23.496Z,100119.47
2023-06-06T23:48:26.556Z,100129.75
2023-06-06T23:53:29.426Z,100108.53
2023-06-06T23:58:32.193Z,100109.34
